deformed-offering
Saratoga-Weather Station Historical Data
Daily Summary for September 17, 2021 Units:  Both    English   Metric
Daily Weekly Monthly Yearly
  High: Low: Average:
Temperature: 78.3 °F /  25.7 °C 56.9 °F /  13.8 °C 64.6 °F /  18.1 °C
Dew Point: 57.8 °F /  14.3 °C 51 °F /  10.6 °C 53.7 °F /  12.1 °C
Humidity: 84% 44.8% 70%
Wind Speed: 3.9mph /  6.3km/h - 1.4mph /  2.3km/h
Wind Gust: 12mph /  19.3km/h - -
Wind- - East
Pressure: 30.00 in /  1015.8 hPa 29.86 in /  1011.1 hPa -
Precipitation: 0.00 in /  0 mm    
 
 
Tabular Data for September 17, 2021
Time Temperature Dew Point Pressure Wind Wind Speed Wind Gust Humidity Rainfall Rate (Hourly) solar
00:04 61.6 °F /  16.4 °C 55.2 °F /  12.9 °C 29.87in /  1011.4hPa NE 0.9mph /  1.4km/h 3.5mph /  5.6km/h 79.5% 0.00in /  0mm 0 W/m2
00:09 61.5 °F /  16.4 °C 54.9 °F /  12.7 °C 29.86in /  1011.1hPa Calm   3mph /  4.8km/h 79% 0.00in /  0mm 0 W/m2
00:14 61.4 °F /  16.3 °C 54.8 °F /  12.7 °C 29.87in /  1011.4hPa NE 0.8mph /  1.3km/h 2.3mph /  3.7km/h 79% 0.00in /  0mm 0 W/m2
00:19 61.3 °F /  16.3 °C 54.7 °F /  12.6 °C 29.87in /  1011.4hPa NE 1.2mph /  1.9km/h 3.5mph /  5.6km/h 78.8% 0.00in /  0mm 0 W/m2
00:24 61.3 °F /  16.3 °C 54.4 °F /  12.4 °C 29.87in /  1011.4hPa NE 0.1mph /  0.2km/h 3.5mph /  5.6km/h 78% 0.00in /  0mm 0 W/m2
00:29 61.3 °F /  16.3 °C 54.4 °F /  12.4 °C 29.87in /  1011.4hPa NE 0.1mph /  0.2km/h 2mph /  3.2km/h 78% 0.00in /  0mm 0 W/m2
00:34 61.3 °F /  16.3 °C 54.4 °F /  12.4 °C 29.88in /  1011.7hPa NE 1.5mph /  2.4km/h 3.5mph /  5.6km/h 78% 0.00in /  0mm 0 W/m2
00:39 61.2 °F /  16.2 °C 54.3 °F /  12.4 °C 29.88in /  1011.7hPa NE 1.1mph /  1.8km/h 3.5mph /  5.6km/h 78% 0.00in /  0mm 0 W/m2
00:44 61.2 °F /  16.2 °C 54.3 °F /  12.4 °C 29.88in /  1011.7hPa Calm   3mph /  4.8km/h 78% 0.00in /  0mm 0 W/m2
00:49 61.2 °F /  16.2 °C 54.3 °F /  12.4 °C 29.87in /  1011.4hPa NE 1.4mph /  2.3km/h 4mph /  6.4km/h 78% 0.00in /  0mm 0 W/m2
00:54 61.1 °F /  16.2 °C 54.3 °F /  12.4 °C 29.87in /  1011.4hPa NE 1.3mph /  2.1km/h 4mph /  6.4km/h 78.2% 0.00in /  0mm 0 W/m2
00:59 61 °F /  16.1 °C 54.4 °F /  12.4 °C 29.87in /  1011.4hPa NE 2.1mph /  3.4km/h 4mph /  6.4km/h 79% 0.00in /  0mm 0 W/m2
01:04 60.8 °F /  16 °C 54.2 °F /  12.3 °C 29.87in /  1011.4hPa NE 1.8mph /  2.9km/h 5mph /  8km/h 79% 0.00in /  0mm 0 W/m2
01:09 60.7 °F /  15.9 °C 53.8 °F /  12.1 °C 29.87in /  1011.4hPa NE 2.6mph /  4.2km/h 6mph /  9.7km/h 78% 0.00in /  0mm 0 W/m2
01:14 60.4 °F /  15.8 °C 53.8 °F /  12.1 °C 29.87in /  1011.4hPa East 2.6mph /  4.2km/h 6mph /  9.7km/h 78.7% 0.00in /  0mm 0 W/m2
01:19 60.1 °F /  15.6 °C 53.8 °F /  12.1 °C 29.87in /  1011.4hPa East 2.2mph /  3.5km/h 6mph /  9.7km/h 79.6% 0.00in /  0mm 0 W/m2
01:24 59.9 °F /  15.5 °C 53.7 °F /  12.1 °C 29.87in /  1011.4hPa East 1.9mph /  3.1km/h 5mph /  8km/h 80% 0.00in /  0mm 0 W/m2
01:29 59.7 °F /  15.4 °C 53.5 °F /  11.9 °C 29.88in /  1011.7hPa East 2.1mph /  3.4km/h 5mph /  8km/h 80% 0.00in /  0mm 0 W/m2
01:34 59.5 °F /  15.3 °C 53.5 °F /  11.9 °C 29.88in /  1011.7hPa East 2mph /  3.2km/h 6mph /  9.7km/h 80.5% 0.00in /  0mm 0 W/m2
01:39 59.3 °F /  15.2 °C 53.5 °F /  11.9 °C 29.88in /  1011.7hPa East 1.9mph /  3.1km/h 6mph /  9.7km/h 81% 0.00in /  0mm 0 W/m2
01:44 59.1 °F /  15.1 °C 53.3 °F /  11.8 °C 29.88in /  1011.7hPa East 0.3mph /  0.5km/h 5mph /  8km/h 81% 0.00in /  0mm 0 W/m2
01:49 59 °F /  15 °C 53.2 °F /  11.8 °C 29.88in /  1011.7hPa East 0.1mph /  0.2km/h 2.3mph /  3.7km/h 81% 0.00in /  0mm 0 W/m2
01:54 58.9 °F /  14.9 °C 53.2 °F /  11.8 °C 29.87in /  1011.4hPa Calm   1mph /  1.6km/h 81.2% 0.00in /  0mm 0 W/m2
01:59 58.9 °F /  14.9 °C 53.4 °F /  11.9 °C 29.87in /  1011.4hPa East 0.1mph /  0.2km/h 1.2mph /  1.9km/h 82% 0.00in /  0mm 0 W/m2
02:04 58.9 °F /  14.9 °C 53.4 °F /  11.9 °C 29.87in /  1011.4hPa East 0.4mph /  0.6km/h 3mph /  4.8km/h 82% 0.00in /  0mm 0 W/m2
02:09 58.9 °F /  14.9 °C 53.4 °F /  11.9 °C 29.87in /  1011.4hPa East 1.6mph /  2.6km/h 3.5mph /  5.6km/h 82% 0.00in /  0mm 0 W/m2
02:14 58.8 °F /  14.9 °C 53.3 °F /  11.8 °C 29.87in /  1011.4hPa East 0.8mph /  1.3km/h 3.5mph /  5.6km/h 82% 0.00in /  0mm 0 W/m2
02:19 58.8 °F /  14.9 °C 53.3 °F /  11.8 °C 29.87in /  1011.4hPa East 0.8mph /  1.3km/h 5mph /  8km/h 82% 0.00in /  0mm 0 W/m2
02:24 58.7 °F /  14.8 °C 53.2 °F /  11.8 °C 29.87in /  1011.4hPa ENE 0.6mph /  1km/h 5mph /  8km/h 82% 0.00in /  0mm 0 W/m2
02:29 58.7 °F /  14.8 °C 53.2 °F /  11.8 °C 29.87in /  1011.4hPa ENE 0.1mph /  0.2km/h 3mph /  4.8km/h 82% 0.00in /  0mm 0 W/m2
02:34 58.7 °F /  14.8 °C 53.2 °F /  11.8 °C 29.87in /  1011.4hPa ENE 0.8mph /  1.3km/h 3.5mph /  5.6km/h 82% 0.00in /  0mm 0 W/m2
02:39 58.7 °F /  14.8 °C 53.2 °F /  11.8 °C 29.87in /  1011.4hPa ENE 0.8mph /  1.3km/h 3mph /  4.8km/h 82% 0.00in /  0mm 0 W/m2
02:44 58.7 °F /  14.8 °C 53.2 °F /  11.8 °C 29.87in /  1011.4hPa ENE 2.3mph /  3.7km/h 5mph /  8km/h 82% 0.00in /  0mm 0 W/m2
02:49 58.7 °F /  14.8 °C 53.2 °F /  11.8 °C 29.87in /  1011.4hPa ENE 1.2mph /  1.9km/h 5mph /  8km/h 82% 0.00in /  0mm 0 W/m2
02:54 58.7 °F /  14.8 °C 53.2 °F /  11.8 °C 29.87in /  1011.4hPa ENE 2.1mph /  3.4km/h 6mph /  9.7km/h 82% 0.00in /  0mm 0 W/m2
02:59 58.6 °F /  14.8 °C 53.1 °F /  11.7 °C 29.86in /  1011.1hPa ENE 1mph /  1.6km/h 6mph /  9.7km/h 82% 0.00in /  0mm 0 W/m2
03:04 58.6 °F /  14.8 °C 53.1 °F /  11.7 °C 29.86in /  1011.1hPa ENE 2.1mph /  3.4km/h 5mph /  8km/h 82% 0.00in /  0mm 0 W/m2
03:09 58.4 °F /  14.7 °C 52.9 °F /  11.6 °C 29.86in /  1011.1hPa ENE 1.6mph /  2.6km/h 6mph /  9.7km/h 82% 0.00in /  0mm 0 W/m2
03:14 58.3 °F /  14.6 °C 52.8 °F /  11.6 °C 29.86in /  1011.1hPa ENE 1.8mph /  2.9km/h 6mph /  9.7km/h 82% 0.00in /  0mm 0 W/m2
03:19 58.3 °F /  14.6 °C 52.8 °F /  11.6 °C 29.86in /  1011.1hPa ENE 1.7mph /  2.7km/h 4mph /  6.4km/h 82% 0.00in /  0mm 0 W/m2
03:24 58.3 °F /  14.6 °C 52.8 °F /  11.6 °C 29.86in /  1011.1hPa ENE 1.5mph /  2.4km/h 5mph /  8km/h 82% 0.00in /  0mm 0 W/m2
03:29 58.2 °F /  14.6 °C 52.7 °F /  11.5 °C 29.86in /  1011.1hPa ENE 1mph /  1.6km/h 5mph /  8km/h 82% 0.00in /  0mm 0 W/m2
03:34 58.1 °F /  14.5 °C 52.6 °F /  11.4 °C 29.86in /  1011.1hPa ENE 1mph /  1.6km/h 3.5mph /  5.6km/h 82% 0.00in /  0mm 0 W/m2
03:39 58.1 °F /  14.5 °C 52.6 °F /  11.4 °C 29.86in /  1011.1hPa ENE 0.3mph /  0.5km/h 3mph /  4.8km/h 82% 0.00in /  0mm 0 W/m2
03:44 58.1 °F /  14.5 °C 52.6 °F /  11.4 °C 29.86in /  1011.1hPa ENE 0.6mph /  1km/h 2.3mph /  3.7km/h 82% 0.00in /  0mm 0 W/m2
03:49 58.1 °F /  14.5 °C 52.6 °F /  11.4 °C 29.86in /  1011.1hPa ENE 0.5mph /  0.8km/h 2.3mph /  3.7km/h 82% 0.00in /  0mm 0 W/m2
03:54 58.1 °F /  14.5 °C 52.6 °F /  11.4 °C 29.86in /  1011.1hPa ENE 0.8mph /  1.3km/h 2.3mph /  3.7km/h 82% 0.00in /  0mm 0 W/m2
03:59 58 °F /  14.4 °C 52.5 °F /  11.4 °C 29.86in /  1011.1hPa ENE 0.7mph /  1.1km/h 2.3mph /  3.7km/h 82% 0.00in /  0mm 0 W/m2
04:04 58 °F /  14.4 °C 52.5 °F /  11.4 °C 29.86in /  1011.1hPa ENE 1.1mph /  1.8km/h 3.5mph /  5.6km/h 82% 0.00in /  0mm 0 W/m2
04:09 58 °F /  14.4 °C 52.5 °F /  11.4 °C 29.86in /  1011.1hPa ENE 0.9mph /  1.4km/h 3.5mph /  5.6km/h 82% 0.00in /  0mm 0 W/m2
04:14 58 °F /  14.4 °C 52.5 °F /  11.4 °C 29.86in /  1011.1hPa ENE 0.8mph /  1.3km/h 3.5mph /  5.6km/h 82% 0.00in /  0mm 0 W/m2
04:19 58 °F /  14.4 °C 52.5 °F /  11.4 °C 29.86in /  1011.1hPa ENE 1.5mph /  2.4km/h 5mph /  8km/h 82% 0.00in /  0mm 0 W/m2
04:24 58 °F /  14.4 °C 52.5 °F /  11.4 °C 29.86in /  1011.1hPa ENE 1.7mph /  2.7km/h 5mph /  8km/h 82% 0.00in /  0mm 0 W/m2
04:29 58 °F /  14.4 °C 52.5 °F /  11.4 °C 29.86in /  1011.1hPa ENE 1.4mph /  2.3km/h 5mph /  8km/h 82% 0.00in /  0mm 0 W/m2
04:34 57.8 °F /  14.3 °C 52.3 °F /  11.3 °C 29.86in /  1011.1hPa ENE 1.7mph /  2.7km/h 4mph /  6.4km/h 82% 0.00in /  0mm 0 W/m2
04:39 57.8 °F /  14.3 °C 52.3 °F /  11.3 °C 29.86in /  1011.1hPa ENE 1.1mph /  1.8km/h 4mph /  6.4km/h 82% 0.00in /  0mm 0 W/m2
04:44 57.6 °F /  14.2 °C 52.1 °F /  11.2 °C 29.86in /  1011.1hPa ENE 1.2mph /  1.9km/h 3.5mph /  5.6km/h 82% 0.00in /  0mm 0 W/m2
04:49 57.6 °F /  14.2 °C 52.1 °F /  11.2 °C 29.87in /  1011.4hPa ENE 1.9mph /  3.1km/h 5mph /  8km/h 82% 0.00in /  0mm 0 W/m2
04:54 57.5 °F /  14.2 °C 52 °F /  11.1 °C 29.87in /  1011.4hPa ENE 1.1mph /  1.8km/h 5mph /  8km/h 82% 0.00in /  0mm 0 W/m2
04:59 57.5 °F /  14.2 °C 52 °F /  11.1 °C 29.87in /  1011.4hPa ENE 2.1mph /  3.4km/h 5mph /  8km/h 82% 0.00in /  0mm 0 W/m2
05:04 57.4 °F /  14.1 °C 51.9 °F /  11.1 °C 29.88in /  1011.7hPa ENE 1.2mph /  1.9km/h 5mph /  8km/h 82% 0.00in /  0mm 0 W/m2
05:09 57.3 °F /  14.1 °C 51.9 °F /  11.1 °C 29.88in /  1011.7hPa East 2mph /  3.2km/h 6mph /  9.7km/h 82% 0.00in /  0mm 0 W/m2
05:14 57.2 °F /  14 °C 51.8 °F /  11 °C 29.88in /  1011.7hPa East 1.6mph /  2.6km/h 6mph /  9.7km/h 82% 0.00in /  0mm 0 W/m2
05:19 57.2 °F /  14 °C 51.8 °F /  11 °C 29.88in /  1011.7hPa East 2.4mph /  3.9km/h 6mph /  9.7km/h 82% 0.00in /  0mm 0 W/m2
05:24 57.1 °F /  13.9 °C 51.7 °F /  10.9 °C 29.88in /  1011.7hPa East 0.4mph /  0.6km/h 6mph /  9.7km/h 82% 0.00in /  0mm 0 W/m2
05:29 57 °F /  13.9 °C 51.6 °F /  10.9 °C 29.88in /  1011.7hPa East 0.5mph /  0.8km/h 2.3mph /  3.7km/h 82% 0.00in /  0mm 0 W/m2
05:34 57 °F /  13.9 °C 51.6 °F /  10.9 °C 29.89in /  1012.1hPa East 0.3mph /  0.5km/h 2.3mph /  3.7km/h 82% 0.00in /  0mm 0 W/m2
05:39 57 °F /  13.9 °C 51.6 °F /  10.9 °C 29.89in /  1012.1hPa Calm   2mph /  3.2km/h 82% 0.00in /  0mm 0 W/m2
05:44 57 °F /  13.9 °C 51.6 °F /  10.9 °C 29.89in /  1012.1hPa Calm     82% 0.00in /  0mm 0 W/m2
05:49 57.1 °F /  13.9 °C 51.8 °F /  11 °C 29.89in /  1012.1hPa Calm     82.5% 0.00in /  0mm 0 W/m2
05:54 57 °F /  13.9 °C 51.8 °F /  11 °C 29.89in /  1012.1hPa Calm     82.5% 0.00in /  0mm 0 W/m2
05:59 57 °F /  13.9 °C 51.7 °F /  10.9 °C 29.90in /  1012.4hPa Calm   1mph /  1.6km/h 82.5% 0.00in /  0mm 0 W/m2
06:04 57 °F /  13.9 °C 51.8 °F /  11 °C 29.90in /  1012.4hPa East 0.4mph /  0.6km/h 2.3mph /  3.7km/h 82.7% 0.00in /  0mm 0 W/m2
06:09 57 °F /  13.9 °C 51.6 °F /  10.9 °C 29.90in /  1012.4hPa East 0.9mph /  1.4km/h 3.5mph /  5.6km/h 82% 0.00in /  0mm 0 W/m2
06:14 57 °F /  13.9 °C 51.6 °F /  10.9 °C 29.90in /  1012.4hPa East 1.7mph /  2.7km/h 3.5mph /  5.6km/h 82% 0.00in /  0mm 0 W/m2
06:19 57 °F /  13.9 °C 51.6 °F /  10.9 °C 29.90in /  1012.4hPa East 1.1mph /  1.8km/h 3.5mph /  5.6km/h 82% 0.00in /  0mm 0 W/m2
06:24 57 °F /  13.9 °C 51.6 °F /  10.9 °C 29.90in /  1012.4hPa East 1.4mph /  2.3km/h 3.5mph /  5.6km/h 82% 0.00in /  0mm 0 W/m2
06:29 56.9 °F /  13.8 °C 51.5 °F /  10.8 °C 29.90in /  1012.4hPa East 0.4mph /  0.6km/h 3mph /  4.8km/h 82% 0.00in /  0mm 0 W/m2
06:34 56.9 °F /  13.8 °C 51.7 °F /  10.9 °C 29.91in /  1012.8hPa East 0.3mph /  0.5km/h 2.3mph /  3.7km/h 82.8% 0.00in /  0mm 0 W/m2
06:39 56.9 °F /  13.8 °C 51.8 °F /  11 °C 29.91in /  1012.8hPa East 0.2mph /  0.3km/h 2mph /  3.2km/h 83% 0.00in /  0mm 0 W/m2
06:44 57 °F /  13.9 °C 51.9 °F /  11.1 °C 29.91in /  1012.8hPa East 0.5mph /  0.8km/h 2.3mph /  3.7km/h 83.2% 0.00in /  0mm 0 W/m2
06:49 57 °F /  13.9 °C 52.2 °F /  11.2 °C 29.91in /  1012.8hPa East 0.6mph /  1km/h 2.3mph /  3.7km/h 84% 0.00in /  0mm 0 W/m2
06:54 57 °F /  13.9 °C 52.2 °F /  11.2 °C 29.91in /  1012.8hPa East 0.9mph /  1.4km/h 3.5mph /  5.6km/h 84% 0.00in /  0mm 0 W/m2
06:59 57 °F /  13.9 °C 52.2 °F /  11.2 °C 29.91in /  1012.8hPa Calm   3mph /  4.8km/h 84% 0.00in /  0mm 0 W/m2
07:04 57 °F /  13.9 °C 52.2 °F /  11.2 °C 29.91in /  1012.8hPa East 0.1mph /  0.2km/h 1.2mph /  1.9km/h 84% 0.00in /  0mm 0 W/m2
07:09 57 °F /  13.9 °C 52.2 °F /  11.2 °C 29.92in /  1013.1hPa Calm   1mph /  1.6km/h 84% 0.00in /  0mm 5 W/m2
07:14 57 °F /  13.9 °C 52.2 °F /  11.2 °C 29.92in /  1013.1hPa East 1.1mph /  1.8km/h 3.5mph /  5.6km/h 84% 0.00in /  0mm 9 W/m2
07:19 57 °F /  13.9 °C 52.2 °F /  11.2 °C 29.93in /  1013.4hPa East 1mph /  1.6km/h 3.5mph /  5.6km/h 84% 0.00in /  0mm 12 W/m2
07:24 57.1 °F /  13.9 °C 52.3 °F /  11.3 °C 29.93in /  1013.4hPa East 1.9mph /  3.1km/h 6mph /  9.7km/h 84% 0.00in /  0mm 23 W/m2
07:29 57.2 °F /  14 °C 52.4 °F /  11.3 °C 29.93in /  1013.4hPa East 0.7mph /  1.1km/h 6mph /  9.7km/h 84% 0.00in /  0mm 25 W/m2
07:34 57.2 °F /  14 °C 52.4 °F /  11.3 °C 29.93in /  1013.4hPa East 0.2mph /  0.3km/h 2.3mph /  3.7km/h 84% 0.00in /  0mm 37 W/m2
07:39 57.2 °F /  14 °C 52.4 °F /  11.3 °C 29.93in /  1013.4hPa East 0.2mph /  0.3km/h 2.3mph /  3.7km/h 84% 0.00in /  0mm 37 W/m2
07:44 57.3 °F /  14.1 °C 52.5 °F /  11.4 °C 29.93in /  1013.4hPa East 0.5mph /  0.8km/h 3mph /  4.8km/h 84% 0.00in /  0mm 37 W/m2
07:49 57.2 °F /  14 °C 52.2 °F /  11.2 °C 29.93in /  1013.4hPa East 0.8mph /  1.3km/h 3.5mph /  5.6km/h 83.2% 0.00in /  0mm 53 W/m2
07:54 57.2 °F /  14 °C 52.1 °F /  11.2 °C 29.93in /  1013.4hPa East 0.5mph /  0.8km/h 3mph /  4.8km/h 83% 0.00in /  0mm 69 W/m2
07:59 57.2 °F /  14 °C 52.1 °F /  11.2 °C 29.93in /  1013.4hPa East 0.6mph /  1km/h 2.3mph /  3.7km/h 83% 0.00in /  0mm 83 W/m2
08:04 57.3 °F /  14.1 °C 52.2 °F /  11.2 °C 29.93in /  1013.4hPa East 1.4mph /  2.3km/h 3.5mph /  5.6km/h 83% 0.00in /  0mm 91 W/m2
08:09 57.4 °F /  14.1 °C 52.3 °F /  11.3 °C 29.93in /  1013.4hPa East 1.1mph /  1.8km/h 3mph /  4.8km/h 83% 0.00in /  0mm 106 W/m2
08:14 57.5 °F /  14.2 °C 52.4 °F /  11.3 °C 29.93in /  1013.4hPa East 1.8mph /  2.9km/h 4mph /  6.4km/h 83% 0.00in /  0mm 158 W/m2
08:19 57.6 °F /  14.2 °C 52.4 °F /  11.3 °C 29.93in /  1013.4hPa East 1.8mph /  2.9km/h 4mph /  6.4km/h 82.8% 0.00in /  0mm 216 W/m2
08:24 57.8 °F /  14.3 °C 52.7 °F /  11.5 °C 29.93in /  1013.4hPa ENE 2.3mph /  3.7km/h 5mph /  8km/h 83% 0.00in /  0mm 382 W/m2
08:29 58 °F /  14.4 °C 52.5 °F /  11.4 °C 29.93in /  1013.4hPa ENE 2.3mph /  3.7km/h 5mph /  8km/h 82.2% 0.00in /  0mm 405 W/m2
08:34 58 °F /  14.4 °C 52.5 °F /  11.4 °C 29.93in /  1013.4hPa East 3.7mph /  6km/h 7mph /  11.3km/h 82% 0.00in /  0mm 399 W/m2
08:39 58.2 °F /  14.6 °C 52.6 °F /  11.4 °C 29.93in /  1013.4hPa East 3.5mph /  5.6km/h 7mph /  11.3km/h 81.7% 0.00in /  0mm 355 W/m2
08:44 58.4 °F /  14.7 °C 52.6 °F /  11.4 °C 29.93in /  1013.4hPa East 2.8mph /  4.5km/h 7mph /  11.3km/h 80.8% 0.00in /  0mm 333 W/m2
08:49 58.6 °F /  14.8 °C 52.4 °F /  11.3 °C 29.94in /  1013.8hPa ENE 3.6mph /  5.8km/h 7mph /  11.3km/h 79.9% 0.00in /  0mm 343 W/m2
08:54 58.6 °F /  14.8 °C 52.1 °F /  11.2 °C 29.94in /  1013.8hPa NE 1.8mph /  2.9km/h 7mph /  11.3km/h 79% 0.00in /  0mm 348 W/m2
08:59 58.7 °F /  14.8 °C 52.2 °F /  11.2 °C 29.94in /  1013.8hPa NE 1.7mph /  2.7km/h 4mph /  6.4km/h 79% 0.00in /  0mm 357 W/m2
09:04 58.8 °F /  14.9 °C 52.3 °F /  11.3 °C 29.94in /  1013.8hPa East 0.9mph /  1.4km/h 4mph /  6.4km/h 79% 0.00in /  0mm 370 W/m2
09:09 59 °F /  15 °C 52.5 °F /  11.4 °C 29.94in /  1013.8hPa East 1.4mph /  2.3km/h 3.5mph /  5.6km/h 79% 0.00in /  0mm 384 W/m2
09:14 59.1 °F /  15.1 °C 52.6 °F /  11.4 °C 29.94in /  1013.8hPa East 2.2mph /  3.5km/h 5mph /  8km/h 79% 0.00in /  0mm 398 W/m2
09:19 59.2 °F /  15.1 °C 52.4 °F /  11.3 °C 29.94in /  1013.8hPa ENE 1.8mph /  2.9km/h 5mph /  8km/h 78.2% 0.00in /  0mm 410 W/m2
09:24 59.2 °F /  15.1 °C 52.3 °F /  11.3 °C 29.94in /  1013.8hPa NE 1.3mph /  2.1km/h 5mph /  8km/h 78% 0.00in /  0mm 421 W/m2
09:29 59.3 °F /  15.2 °C 52.4 °F /  11.3 °C 29.94in /  1013.8hPa NE 3.9mph /  6.3km/h 8.1mph /  13km/h 78% 0.00in /  0mm 431 W/m2
09:34 59.6 °F /  15.3 °C 52.7 °F /  11.5 °C 29.94in /  1013.8hPa ENE 1.5mph /  2.4km/h 8mph /  12.9km/h 78% 0.00in /  0mm 443 W/m2
09:39 59.8 °F /  15.4 °C 52.9 °F /  11.6 °C 29.94in /  1013.8hPa ENE 1.9mph /  3.1km/h 4mph /  6.4km/h 78% 0.00in /  0mm 457 W/m2
09:44 60.1 °F /  15.6 °C 53.1 °F /  11.7 °C 29.94in /  1013.8hPa ENE 2.9mph /  4.7km/h 6mph /  9.7km/h 77.7% 0.00in /  0mm 466 W/m2
09:49 60.3 °F /  15.7 °C 53.3 °F /  11.8 °C 29.94in /  1013.8hPa East 3.6mph /  5.8km/h 7mph /  11.3km/h 78% 0.00in /  0mm 477 W/m2
09:54 60.5 °F /  15.8 °C 53.4 °F /  11.9 °C 29.94in /  1013.8hPa ENE 2.5mph /  4km/h 7mph /  11.3km/h 77.4% 0.00in /  0mm 489 W/m2
09:59 60.6 °F /  15.9 °C 53 °F /  11.7 °C 29.94in /  1013.8hPa NE 1.6mph /  2.6km/h 6mph /  9.7km/h 76% 0.00in /  0mm 501 W/m2
10:04 60.9 °F /  16.1 °C 53.4 °F /  11.9 °C 29.94in /  1013.8hPa ENE 1.9mph /  3.1km/h 5mph /  8km/h 76.3% 0.00in /  0mm 516 W/m2
10:09 61.1 °F /  16.2 °C 53.1 °F /  11.7 °C 29.94in /  1013.8hPa ENE 0.8mph /  1.3km/h 5mph /  8km/h 75.2% 0.00in /  0mm 530 W/m2
10:14 61.2 °F /  16.2 °C 53.1 °F /  11.7 °C 29.94in /  1013.8hPa North 1.9mph /  3.1km/h 5mph /  8km/h 74.7% 0.00in /  0mm 547 W/m2
10:19 61.5 °F /  16.4 °C 53 °F /  11.7 °C 29.94in /  1013.8hPa North 2.9mph /  4.7km/h 6mph /  9.7km/h 73.7% 0.00in /  0mm 560 W/m2
10:24 61.7 °F /  16.5 °C 53 °F /  11.7 °C 29.94in /  1013.8hPa NNE 2mph /  3.2km/h 6mph /  9.7km/h 73% 0.00in /  0mm 565 W/m2
10:29 62 °F /  16.7 °C 53 °F /  11.7 °C 29.94in /  1013.8hPa NE 2.8mph /  4.5km/h 6mph /  9.7km/h 72.2% 0.00in /  0mm 581 W/m2
10:34 62.3 °F /  16.8 °C 53.2 °F /  11.8 °C 29.94in /  1013.8hPa NE 2.2mph /  3.5km/h 7mph /  11.3km/h 72% 0.00in /  0mm 584 W/m2
10:39 62.5 °F /  16.9 °C 53.3 °F /  11.8 °C 29.94in /  1013.8hPa NE 2.4mph /  3.9km/h 7mph /  11.3km/h 71.8% 0.00in /  0mm 586 W/m2
10:44 62.7 °F /  17.1 °C 53.2 °F /  11.8 °C 29.94in /  1013.8hPa NNE 2.7mph /  4.3km/h 7mph /  11.3km/h 71% 0.00in /  0mm 595 W/m2
10:49 62.9 °F /  17.2 °C 53.2 °F /  11.8 °C 29.94in /  1013.8hPa North 2mph /  3.2km/h 7mph /  11.3km/h 70.4% 0.00in /  0mm 614 W/m2
10:54 63.2 °F /  17.3 °C 53.2 °F /  11.8 °C 29.94in /  1013.8hPa North 1.2mph /  1.9km/h 5mph /  8km/h 69.7% 0.00in /  0mm 621 W/m2
10:59 63.5 °F /  17.5 °C 53 °F /  11.7 °C 29.94in /  1013.8hPa North 1.6mph /  2.6km/h 3.5mph /  5.6km/h 68.7% 0.00in /  0mm 637 W/m2
11:04 63.8 °F /  17.7 °C 53.2 °F /  11.8 °C 29.94in /  1013.8hPa NNE 2.3mph /  3.7km/h 6mph /  9.7km/h 68.5% 0.00in /  0mm 642 W/m2
11:09 64.1 °F /  17.8 °C 53.3 °F /  11.8 °C 29.94in /  1013.8hPa NE 2.4mph /  3.9km/h 6mph /  9.7km/h 67.8% 0.00in /  0mm 651 W/m2
11:14 64.4 °F /  18 °C 53.2 °F /  11.8 °C 29.94in /  1013.8hPa NNE 1.2mph /  1.9km/h 6mph /  9.7km/h 67% 0.00in /  0mm 663 W/m2
11:19 64.8 °F /  18.2 °C 53.5 °F /  11.9 °C 29.94in /  1013.8hPa NNE 2.7mph /  4.3km/h 5mph /  8km/h 66.6% 0.00in /  0mm 672 W/m2
11:24 65.2 °F /  18.4 °C 53.2 °F /  11.8 °C 29.94in /  1013.8hPa North 2.7mph /  4.3km/h 7mph /  11.3km/h 65.2% 0.00in /  0mm 679 W/m2
11:29 65.6 °F /  18.7 °C 53.2 °F /  11.8 °C 29.94in /  1013.8hPa NNE 2.3mph /  3.7km/h 7mph /  11.3km/h 64.2% 0.00in /  0mm 688 W/m2
11:34 66 °F /  18.9 °C 53.4 °F /  11.9 °C 29.94in /  1013.8hPa North 1.5mph /  2.4km/h 6mph /  9.7km/h 63.8% 0.00in /  0mm 693 W/m2
11:39 66.3 °F /  19.1 °C 53.3 °F /  11.8 °C 29.94in /  1013.8hPa North 1.8mph /  2.9km/h 6mph /  9.7km/h 63% 0.00in /  0mm 702 W/m2
11:44 66.7 °F /  19.3 °C 53.5 °F /  11.9 °C 29.94in /  1013.8hPa NNW 1.7mph /  2.7km/h 6mph /  9.7km/h 62.7% 0.00in /  0mm 707 W/m2
11:49 67.1 °F /  19.5 °C 53.9 °F /  12.2 °C 29.94in /  1013.8hPa NE 2.3mph /  3.7km/h 6mph /  9.7km/h 62.6% 0.00in /  0mm 713 W/m2
11:54 67.4 °F /  19.7 °C 53.7 °F /  12.1 °C 29.94in /  1013.8hPa NE 3.6mph /  5.8km/h 7mph /  11.3km/h 61.3% 0.00in /  0mm 713 W/m2
11:59 67.8 °F /  19.9 °C 53.9 °F /  12.2 °C 29.94in /  1013.8hPa ENE 2.2mph /  3.5km/h 7mph /  11.3km/h 61% 0.00in /  0mm 716 W/m2
12:04 68.1 °F /  20.1 °C 54.2 °F /  12.3 °C 29.94in /  1013.8hPa ENE 3mph /  4.8km/h 6mph /  9.7km/h 61% 0.00in /  0mm 723 W/m2
12:09 68.4 °F /  20.2 °C 54.8 °F /  12.7 °C 29.94in /  1013.8hPa East 2mph /  3.2km/h 6mph /  9.7km/h 61.7% 0.00in /  0mm 728 W/m2
12:14 68.8 °F /  20.4 °C 54.2 °F /  12.3 °C 29.94in /  1013.8hPa NNE 1.6mph /  2.6km/h 5mph /  8km/h 59.7% 0.00in /  0mm 730 W/m2
12:19 69.1 °F /  20.6 °C 54.4 °F /  12.4 °C 29.94in /  1013.8hPa NNE 1.5mph /  2.4km/h 5mph /  8km/h 59.3% 0.00in /  0mm 737 W/m2
12:24 69.4 °F /  20.8 °C 54.2 °F /  12.3 °C 29.94in /  1013.8hPa ENE 1.9mph /  3.1km/h 5mph /  8km/h 58.4% 0.00in /  0mm 737 W/m2
12:29 69.8 °F /  21 °C 53.8 °F /  12.1 °C 29.94in /  1013.8hPa NNE 2.8mph /  4.5km/h 7mph /  11.3km/h 56.9% 0.00in /  0mm 737 W/m2
12:34 70.3 °F /  21.3 °C 53.7 °F /  12.1 °C 29.94in /  1013.8hPa NNE 2.7mph /  4.3km/h 7mph /  11.3km/h 55.5% 0.00in /  0mm 739 W/m2
12:39 70.8 °F /  21.6 °C 53.4 °F /  11.9 °C 29.93in /  1013.4hPa NE 1.5mph /  2.4km/h 7mph /  11.3km/h 54.2% 0.00in /  0mm 737 W/m2
12:44 71.1 °F /  21.7 °C 53.4 °F /  11.9 °C 29.93in /  1013.4hPa North 2mph /  3.2km/h 6mph /  9.7km/h 53.5% 0.00in /  0mm 744 W/m2
12:49 71.6 °F /  22 °C 53.4 °F /  11.9 °C 29.93in /  1013.4hPa North 2.7mph /  4.3km/h 6mph /  9.7km/h 52.7% 0.00in /  0mm 743 W/m2
12:54 72 °F /  22.2 °C 53.4 °F /  11.9 °C 29.93in /  1013.4hPa NNE 1.9mph /  3.1km/h 5mph /  8km/h 52.2% 0.00in /  0mm 743 W/m2
12:59 72.3 °F /  22.4 °C 53.7 °F /  12.1 °C 29.93in /  1013.4hPa North 1.4mph /  2.3km/h 6mph /  9.7km/h 52% 0.00in /  0mm 743 W/m2
13:04 72.7 °F /  22.6 °C 53.8 °F /  12.1 °C 29.93in /  1013.4hPa NNW 2.2mph /  3.5km/h 6mph /  9.7km/h 51.5% 0.00in /  0mm 744 W/m2
13:09 73.1 °F /  22.8 °C 53.2 °F /  11.8 °C 29.93in /  1013.4hPa NNE 2.7mph /  4.3km/h 7mph /  11.3km/h 49.8% 0.00in /  0mm 744 W/m2
13:14 73.4 °F /  23 °C 53.6 °F /  12 °C 29.93in /  1013.4hPa NW 1.9mph /  3.1km/h 7mph /  11.3km/h 50% 0.00in /  0mm 743 W/m2
13:19 73.8 °F /  23.2 °C 53.4 °F /  11.9 °C 29.93in /  1013.4hPa NNW 2.2mph /  3.5km/h 5mph /  8km/h 49.1% 0.00in /  0mm 743 W/m2
13:24 74.1 °F /  23.4 °C 53 °F /  11.7 °C 29.93in /  1013.4hPa North 2.4mph /  3.9km/h 7mph /  11.3km/h 47.7% 0.00in /  0mm 743 W/m2
13:29 74.6 °F /  23.7 °C 53.4 °F /  11.9 °C 29.93in /  1013.4hPa NNE 3mph /  4.8km/h 7mph /  11.3km/h 47.7% 0.00in /  0mm 739 W/m2
13:34 74.9 °F /  23.8 °C 53.6 °F /  12 °C 29.93in /  1013.4hPa North 3.4mph /  5.5km/h 7mph /  11.3km/h 47.5% 0.00in /  0mm 735 W/m2
13:39 75.3 °F /  24.1 °C 54.8 °F /  12.7 °C 29.92in /  1013.1hPa North 3.4mph /  5.5km/h 7mph /  11.3km/h 49% 0.00in /  0mm 735 W/m2
13:44 75.8 °F /  24.3 °C 54.9 °F /  12.7 °C 29.93in /  1013.4hPa North 3.8mph /  6.1km/h 11.5mph /  18.5km/h 48.4% 0.00in /  0mm 735 W/m2
13:49 76.1 °F /  24.5 °C 54.9 °F /  12.7 °C 29.93in /  1013.4hPa NNW 2.6mph /  4.2km/h 12mph /  19.3km/h 47.8% 0.00in /  0mm 732 W/m2
13:54 76.2 °F /  24.6 °C 54.6 °F /  12.6 °C 29.92in /  1013.1hPa North 3.3mph /  5.3km/h 8.1mph /  13km/h 47.2% 0.00in /  0mm 727 W/m2
13:59 76.4 °F /  24.7 °C 54.7 °F /  12.6 °C 29.92in /  1013.1hPa NNW 2.8mph /  4.5km/h 10.4mph /  16.7km/h 47% 0.00in /  0mm 721 W/m2
14:04 76.5 °F /  24.7 °C 54.8 °F /  12.7 °C 29.92in /  1013.1hPa NNW 2.3mph /  3.7km/h 10mph /  16.1km/h 47% 0.00in /  0mm 711 W/m2
14:09 76.4 °F /  24.7 °C 54.7 °F /  12.6 °C 29.92in /  1013.1hPa North 2.4mph /  3.9km/h 7mph /  11.3km/h 47% 0.00in /  0mm 711 W/m2
14:14 76.4 °F /  24.7 °C 54.7 °F /  12.6 °C 29.92in /  1013.1hPa North 2.9mph /  4.7km/h 7mph /  11.3km/h 47.1% 0.00in /  0mm 707 W/m2
14:19 76.5 °F /  24.7 °C 55.2 °F /  12.9 °C 29.92in /  1013.1hPa North 2.6mph /  4.2km/h 7mph /  11.3km/h 47.8% 0.00in /  0mm 700 W/m2
14:24 76.5 °F /  24.7 °C 54.8 °F /  12.7 °C 29.92in /  1013.1hPa North 3.1mph /  5km/h 8.1mph /  13km/h 47% 0.00in /  0mm 695 W/m2
14:29 76.5 °F /  24.7 °C 54.8 °F /  12.7 °C 29.92in /  1013.1hPa NNW 2.1mph /  3.4km/h 8mph /  12.9km/h 46.8% 0.00in /  0mm 686 W/m2
14:34 76.7 °F /  24.8 °C 55 °F /  12.8 °C 29.92in /  1013.1hPa North 3.1mph /  5km/h 7mph /  11.3km/h 47% 0.00in /  0mm 679 W/m2
14:39 76.8 °F /  24.9 °C 55 °F /  12.8 °C 29.92in /  1013.1hPa North 2.9mph /  4.7km/h 8.1mph /  13km/h 47% 0.00in /  0mm 669 W/m2
14:44 76.9 °F /  24.9 °C 55 °F /  12.8 °C 29.92in /  1013.1hPa North 1.1mph /  1.8km/h 8mph /  12.9km/h 46.7% 0.00in /  0mm 660 W/m2
14:49 77.1 °F /  25.1 °C 54.8 °F /  12.7 °C 29.92in /  1013.1hPa North 2.8mph /  4.5km/h 7mph /  11.3km/h 46.2% 0.00in /  0mm 653 W/m2
14:54 77.3 °F /  25.2 °C 54.7 °F /  12.6 °C 29.92in /  1013.1hPa NNE 3.2mph /  5.1km/h 7mph /  11.3km/h 45.7% 0.00in /  0mm 639 W/m2
14:59 77.4 °F /  25.2 °C 54.9 °F /  12.7 °C 29.91in /  1012.8hPa North 3.5mph /  5.6km/h 7mph /  11.3km/h 45.8% 0.00in /  0mm 633 W/m2
15:04 77.6 °F /  25.3 °C 55.3 °F /  12.9 °C 29.91in /  1012.8hPa North 2.8mph /  4.5km/h 7mph /  11.3km/h 46.2% 0.00in /  0mm 623 W/m2
15:09 77.7 °F /  25.4 °C 55.6 °F /  13.1 °C 29.91in /  1012.8hPa NNE 2.9mph /  4.7km/h 7mph /  11.3km/h 46.5% 0.00in /  0mm 612 W/m2
15:14 77.8 °F /  25.4 °C 54.7 °F /  12.6 °C 29.91in /  1012.8hPa NNE 3.3mph /  5.3km/h 7mph /  11.3km/h 44.8% 0.00in /  0mm 604 W/m2
15:19 78 °F /  25.6 °C 55.5 °F /  13.1 °C 29.91in /  1012.8hPa NNE 3.3mph /  5.3km/h 7mph /  11.3km/h 46% 0.00in /  0mm 595 W/m2
15:24 78.1 °F /  25.6 °C 55.8 °F /  13.2 °C 29.91in /  1012.8hPa North 2.6mph /  4.2km/h 7mph /  11.3km/h 46.3% 0.00in /  0mm 586 W/m2
15:29 78.3 °F /  25.7 °C 56.1 °F /  13.4 °C 29.91in /  1012.8hPa NNE 3.4mph /  5.5km/h 10mph /  16.1km/h 46.5% 0.00in /  0mm 579 W/m2
15:34 78.3 °F /  25.7 °C 56 °F /  13.3 °C 29.91in /  1012.8hPa North 3.6mph /  5.8km/h 10.4mph /  16.7km/h 46.3% 0.00in /  0mm 561 W/m2
15:39 78.3 °F /  25.7 °C 56.4 °F /  13.6 °C 29.91in /  1012.8hPa North 2.8mph /  4.5km/h 6mph /  9.7km/h 47% 0.00in /  0mm 554 W/m2
15:44 78.3 °F /  25.7 °C 56.5 °F /  13.6 °C 29.91in /  1012.8hPa North 2.7mph /  4.3km/h 7mph /  11.3km/h 47.2% 0.00in /  0mm 530 W/m2
15:49 78.2 °F /  25.7 °C 56.9 °F /  13.8 °C 29.91in /  1012.8hPa North 2.9mph /  4.7km/h 7mph /  11.3km/h 48% 0.00in /  0mm 517 W/m2
15:54 78.1 °F /  25.6 °C 56.5 °F /  13.6 °C 29.91in /  1012.8hPa North 2.6mph /  4.2km/h 6mph /  9.7km/h 47.5% 0.00in /  0mm 510 W/m2
15:59 77.9 °F /  25.5 °C 56.4 °F /  13.6 °C 29.91in /  1012.8hPa NNW 2.7mph /  4.3km/h 6mph /  9.7km/h 47.7% 0.00in /  0mm 507 W/m2
16:04 77.7 °F /  25.4 °C 56.4 °F /  13.6 °C 29.91in /  1012.8hPa North 2.3mph /  3.7km/h 7mph /  11.3km/h 48% 0.00in /  0mm 493 W/m2
16:09 77.7 °F /  25.4 °C 56.7 °F /  13.7 °C 29.91in /  1012.8hPa NNE 2.4mph /  3.9km/h 7mph /  11.3km/h 48.5% 0.00in /  0mm 486 W/m2
16:14 77.6 °F /  25.3 °C 56.9 °F /  13.8 °C 29.91in /  1012.8hPa North 2.3mph /  3.7km/h 6mph /  9.7km/h 49% 0.00in /  0mm 472 W/m2
16:19 77.5 °F /  25.3 °C 56.8 °F /  13.8 °C 29.91in /  1012.8hPa North 1.4mph /  2.3km/h 6mph /  9.7km/h 49% 0.00in /  0mm 463 W/m2
16:24 77.4 °F /  25.2 °C 56.9 °F /  13.8 °C 29.91in /  1012.8hPa ENE 1.4mph /  2.3km/h 3.5mph /  5.6km/h 49.3% 0.00in /  0mm 452 W/m2
16:29 77.3 °F /  25.2 °C 57.2 °F /  14 °C 29.91in /  1012.8hPa North 2.2mph /  3.5km/h 6mph /  9.7km/h 50% 0.00in /  0mm 445 W/m2
16:34 77.2 °F /  25.1 °C 57.3 °F /  14.1 °C 29.91in /  1012.8hPa North 2mph /  3.2km/h 6mph /  9.7km/h 50.3% 0.00in /  0mm 431 W/m2
16:39 77.1 °F /  25.1 °C 57.6 °F /  14.2 °C 29.91in /  1012.8hPa NNW 1.7mph /  2.7km/h 5mph /  8km/h 51% 0.00in /  0mm 415 W/m2
16:44 77 °F /  25 °C 57.5 °F /  14.2 °C 29.91in /  1012.8hPa NE 2.3mph /  3.7km/h 6mph /  9.7km/h 51.1% 0.00in /  0mm 401 W/m2
16:49 76.8 °F /  24.9 °C 57.8 °F /  14.3 °C 29.91in /  1012.8hPa NE 1.7mph /  2.7km/h 6mph /  9.7km/h 52% 0.00in /  0mm 385 W/m2
16:54 76.7 °F /  24.8 °C 57.7 °F /  14.3 °C 29.91in /  1012.8hPa NNE 2.4mph /  3.9km/h 6mph /  9.7km/h 52% 0.00in /  0mm 366 W/m2
16:59 76.6 °F /  24.8 °C 57.7 °F /  14.3 °C 29.91in /  1012.8hPa North 2.8mph /  4.5km/h 6mph /  9.7km/h 52% 0.00in /  0mm 355 W/m2
17:04 76.4 °F /  24.7 °C 57.5 °F /  14.2 °C 29.91in /  1012.8hPa North 2.1mph /  3.4km/h 6mph /  9.7km/h 52% 0.00in /  0mm 341 W/m2
17:09 76.2 °F /  24.6 °C 57.6 °F /  14.2 °C 29.91in /  1012.8hPa NNW 1.9mph /  3.1km/h 7mph /  11.3km/h 52.5% 0.00in /  0mm 326 W/m2
17:14 76 °F /  24.4 °C 57.6 °F /  14.2 °C 29.91in /  1012.8hPa North 1.8mph /  2.9km/h 7mph /  11.3km/h 53% 0.00in /  0mm 315 W/m2
17:19 75.9 °F /  24.4 °C 57.5 °F /  14.2 °C 29.91in /  1012.8hPa NNW 1.6mph /  2.6km/h 6mph /  9.7km/h 53% 0.00in /  0mm 299 W/m2
17:24 75.8 °F /  24.3 °C 57.4 °F /  14.1 °C 29.91in /  1012.8hPa North 2.3mph /  3.7km/h 6mph /  9.7km/h 53% 0.00in /  0mm 278 W/m2
17:29 75.6 °F /  24.2 °C 57.5 °F /  14.2 °C 29.91in /  1012.8hPa NNE 2.4mph /  3.9km/h 6mph /  9.7km/h 53.5% 0.00in /  0mm 253 W/m2
17:34 75.4 °F /  24.1 °C 57.7 °F /  14.3 °C 29.91in /  1012.8hPa NE 2.5mph /  4km/h 6mph /  9.7km/h 54.3% 0.00in /  0mm 227 W/m2
17:39 75.2 °F /  24 °C 57.4 °F /  14.1 °C 29.92in /  1013.1hPa North 2.7mph /  4.3km/h 5mph /  8km/h 54% 0.00in /  0mm 206 W/m2
17:44 75 °F /  23.9 °C 57.2 °F /  14 °C 29.92in /  1013.1hPa NNE 2.7mph /  4.3km/h 10.4mph /  16.7km/h 54% 0.00in /  0mm 187 W/m2
17:49 74.8 °F /  23.8 °C 57.5 °F /  14.2 °C 29.92in /  1013.1hPa North 3mph /  4.8km/h 10mph /  16.1km/h 55% 0.00in /  0mm 169 W/m2
17:54 74.6 °F /  23.7 °C 57.4 °F /  14.1 °C 29.92in /  1013.1hPa NNE 3.5mph /  5.6km/h 7mph /  11.3km/h 55% 0.00in /  0mm 155 W/m2
17:59 74.2 °F /  23.4 °C 57.3 °F /  14.1 °C 29.92in /  1013.1hPa North 3.1mph /  5km/h 7mph /  11.3km/h 55.5% 0.00in /  0mm 141 W/m2
18:04 73.9 °F /  23.3 °C 57.2 °F /  14 °C 29.92in /  1013.1hPa NNE 3mph /  4.8km/h 7mph /  11.3km/h 56% 0.00in /  0mm 118 W/m2
18:09 73.6 °F /  23.1 °C 56.9 °F /  13.8 °C 29.92in /  1013.1hPa North 2.7mph /  4.3km/h 8.1mph /  13km/h 56% 0.00in /  0mm 111 W/m2
18:14 73.3 °F /  22.9 °C 57.1 °F /  13.9 °C 29.92in /  1013.1hPa North 2.7mph /  4.3km/h 8mph /  12.9km/h 56.8% 0.00in /  0mm 104 W/m2
18:19 73.1 °F /  22.8 °C 57 °F /  13.9 °C 29.92in /  1013.1hPa NNW 1.3mph /  2.1km/h 7mph /  11.3km/h 57% 0.00in /  0mm 97 W/m2
18:24 72.8 °F /  22.7 °C 57.2 °F /  14 °C 29.92in /  1013.1hPa North 1.9mph /  3.1km/h 5mph /  8km/h 58% 0.00in /  0mm 88 W/m2
18:29 72.5 °F /  22.5 °C 56.9 °F /  13.8 °C 29.93in /  1013.4hPa North 1.7mph /  2.7km/h 6mph /  9.7km/h 58% 0.00in /  0mm 77 W/m2
18:34 72.2 °F /  22.3 °C 56.6 °F /  13.7 °C 29.93in /  1013.4hPa North 0.4mph /  0.6km/h 6mph /  9.7km/h 58% 0.00in /  0mm 39 W/m2
18:39 72 °F /  22.2 °C 56.5 °F /  13.6 °C 29.93in /  1013.4hPa NNE 2.2mph /  3.5km/h 6mph /  9.7km/h 58.2% 0.00in /  0mm 32 W/m2
18:44 71.7 °F /  22.1 °C 56.1 °F /  13.4 °C 29.93in /  1013.4hPa North 1mph /  1.6km/h 6mph /  9.7km/h 58% 0.00in /  0mm 26 W/m2
18:49 71.5 °F /  21.9 °C 56.2 °F /  13.4 °C 29.93in /  1013.4hPa North 1.2mph /  1.9km/h 5mph /  8km/h 58.7% 0.00in /  0mm 19 W/m2
18:54 71.2 °F /  21.8 °C 56.1 °F /  13.4 °C 29.94in /  1013.8hPa North 0.5mph /  0.8km/h 5mph /  8km/h 59% 0.00in /  0mm 16 W/m2
18:59 70.9 °F /  21.6 °C 56 °F /  13.3 °C 29.94in /  1013.8hPa NNW 0.3mph /  0.5km/h 3.5mph /  5.6km/h 59.3% 0.00in /  0mm 12 W/m2
19:04 70.7 °F /  21.5 °C 56.1 °F /  13.4 °C 29.94in /  1013.8hPa NNE 0.8mph /  1.3km/h 6mph /  9.7km/h 60% 0.00in /  0mm 9 W/m2
19:09 70.3 °F /  21.3 °C 55.8 °F /  13.2 °C 29.94in /  1013.8hPa NNE 1.5mph /  2.4km/h 6mph /  9.7km/h 60% 0.00in /  0mm 7 W/m2
19:14 69.9 °F /  21.1 °C 55.8 °F /  13.2 °C 29.94in /  1013.8hPa NNE 0.9mph /  1.4km/h 6mph /  9.7km/h 60.8% 0.00in /  0mm 5 W/m2
19:19 69.6 °F /  20.9 °C 55.6 °F /  13.1 °C 29.94in /  1013.8hPa NNE 1.2mph /  1.9km/h 6mph /  9.7km/h 61% 0.00in /  0mm 0 W/m2
19:24 69.3 °F /  20.7 °C 55.3 °F /  12.9 °C 29.94in /  1013.8hPa NNE 0.4mph /  0.6km/h 6mph /  9.7km/h 61% 0.00in /  0mm 0 W/m2
19:29 69 °F /  20.6 °C 55.1 °F /  12.8 °C 29.94in /  1013.8hPa North 0.3mph /  0.5km/h 4mph /  6.4km/h 61.3% 0.00in /  0mm 0 W/m2
19:34 68.6 °F /  20.3 °C 55.1 °F /  12.8 °C 29.95in /  1014.1hPa NNE 0.9mph /  1.4km/h 5mph /  8km/h 62% 0.00in /  0mm 0 W/m2
19:39 68.3 °F /  20.2 °C 55 °F /  12.8 °C 29.95in /  1014.1hPa NE 0.6mph /  1km/h 5mph /  8km/h 62.7% 0.00in /  0mm 0 W/m2
19:44 67.9 °F /  19.9 °C 54.8 °F /  12.7 °C 29.95in /  1014.1hPa NNE 1.1mph /  1.8km/h 5mph /  8km/h 63% 0.00in /  0mm 0 W/m2
19:49 67.5 °F /  19.7 °C 54.6 °F /  12.6 °C 29.95in /  1014.1hPa NNE 0.9mph /  1.4km/h 5mph /  8km/h 63.2% 0.00in /  0mm 0 W/m2
19:54 67.2 °F /  19.6 °C 54.6 °F /  12.6 °C 29.96in /  1014.4hPa North 0.3mph /  0.5km/h 4mph /  6.4km/h 64% 0.00in /  0mm 0 W/m2
19:59 66.9 °F /  19.4 °C 54.3 °F /  12.4 °C 29.96in /  1014.4hPa North 0.2mph /  0.3km/h 3mph /  4.8km/h 64% 0.00in /  0mm 0 W/m2
20:04 66.6 °F /  19.2 °C 54.4 °F /  12.4 °C 29.96in /  1014.4hPa NE 0.6mph /  1km/h 3.5mph /  5.6km/h 64.7% 0.00in /  0mm 0 W/m2
20:09 66.3 °F /  19.1 °C 54.2 °F /  12.3 °C 29.96in /  1014.4hPa NNE 0.7mph /  1.1km/h 5mph /  8km/h 65% 0.00in /  0mm 0 W/m2
20:14 66 °F /  18.9 °C 54.3 °F /  12.4 °C 29.96in /  1014.4hPa Calm   5mph /  8km/h 66% 0.00in /  0mm 0 W/m2
20:19 65.6 °F /  18.7 °C 54.3 °F /  12.4 °C 29.96in /  1014.4hPa Calm     67% 0.00in /  0mm 0 W/m2
20:24 65.4 °F /  18.6 °C 54.2 °F /  12.3 °C 29.96in /  1014.4hPa Calm     67% 0.00in /  0mm 0 W/m2
20:29 65.2 °F /  18.4 °C 54.1 °F /  12.3 °C 29.96in /  1014.4hPa Calm   2mph /  3.2km/h 67.3% 0.00in /  0mm 0 W/m2
20:34 64.9 °F /  18.3 °C 54.2 °F /  12.3 °C 29.97in /  1014.8hPa NE 0.5mph /  0.8km/h 6mph /  9.7km/h 68.1% 0.00in /  0mm 0 W/m2
20:39 64.7 °F /  18.2 °C 54.2 °F /  12.3 °C 29.97in /  1014.8hPa NE 0.6mph /  1km/h 6mph /  9.7km/h 68.7% 0.00in /  0mm 0 W/m2
20:44 64.5 °F /  18.1 °C 54.1 °F /  12.3 °C 29.97in /  1014.8hPa NE 0.3mph /  0.5km/h 5mph /  8km/h 69% 0.00in /  0mm 0 W/m2
20:49 64.3 °F /  17.9 °C 53.9 °F /  12.2 °C 29.97in /  1014.8hPa NE 0.1mph /  0.2km/h 3mph /  4.8km/h 69% 0.00in /  0mm 0 W/m2
20:54 64.2 °F /  17.9 °C 53.8 °F /  12.1 °C 29.98in /  1015.1hPa Calm   1mph /  1.6km/h 69.2% 0.00in /  0mm 0 W/m2
20:59 63.9 °F /  17.7 °C 53.9 °F /  12.2 °C 29.98in /  1015.1hPa Calm     70% 0.00in /  0mm 0 W/m2
21:04 63.6 °F /  17.6 °C 54 °F /  12.2 °C 29.98in /  1015.1hPa Calm     71% 0.00in /  0mm 0 W/m2
21:09 63.3 °F /  17.4 °C 53.7 °F /  12.1 °C 29.98in /  1015.1hPa Calm     71.2% 0.00in /  0mm 0 W/m2
21:14 62.9 °F /  17.2 °C 53.7 °F /  12.1 °C 29.98in /  1015.1hPa Calm     72% 0.00in /  0mm 0 W/m2
21:19 62.6 °F /  17 °C 53.4 °F /  11.9 °C 29.98in /  1015.1hPa Calm     72% 0.00in /  0mm 0 W/m2
21:24 62.3 °F /  16.8 °C 53.3 °F /  11.8 °C 29.98in /  1015.1hPa Calm     72.5% 0.00in /  0mm 0 W/m2
21:29 61.9 °F /  16.6 °C 53 °F /  11.7 °C 29.98in /  1015.1hPa Calm     72.5% 0.00in /  0mm 0 W/m2
21:34 61.6 °F /  16.4 °C 52.7 °F /  11.5 °C 29.98in /  1015.1hPa Calm     72.6% 0.00in /  0mm 0 W/m2
21:39 61.3 °F /  16.3 °C 52.6 °F /  11.4 °C 29.98in /  1015.1hPa Calm     73% 0.00in /  0mm 0 W/m2
21:44 61 °F /  16.1 °C 52.3 °F /  11.3 °C 29.99in /  1015.5hPa Calm     73% 0.00in /  0mm 0 W/m2
21:49 60.7 °F /  15.9 °C 52.4 °F /  11.3 °C 29.99in /  1015.5hPa Calm     74% 0.00in /  0mm 0 W/m2
21:54 60.5 °F /  15.8 °C 52.2 °F /  11.2 °C 29.99in /  1015.5hPa Calm     74% 0.00in /  0mm 0 W/m2
21:59 60.3 °F /  15.7 °C 52 °F /  11.1 °C 29.99in /  1015.5hPa Calm     74% 0.00in /  0mm 0 W/m2
22:04 60.1 °F /  15.6 °C 51.9 °F /  11.1 °C 29.99in /  1015.5hPa Calm     74.4% 0.00in /  0mm 0 W/m2
22:09 59.9 °F /  15.5 °C 52 °F /  11.1 °C 29.99in /  1015.5hPa Calm     75% 0.00in /  0mm 0 W/m2
22:14 59.7 °F /  15.4 °C 51.8 °F /  11 °C 29.99in /  1015.5hPa Calm     75% 0.00in /  0mm 0 W/m2
22:19 59.5 °F /  15.3 °C 51.7 °F /  10.9 °C 29.99in /  1015.5hPa Calm   1.2mph /  1.9km/h 75.3% 0.00in /  0mm 0 W/m2
22:24 59.3 °F /  15.2 °C 51.7 °F /  10.9 °C 29.99in /  1015.5hPa Calm   1mph /  1.6km/h 76% 0.00in /  0mm 0 W/m2
22:29 59.2 °F /  15.1 °C 51.6 °F /  10.9 °C 29.99in /  1015.5hPa NE 0.2mph /  0.3km/h 3mph /  4.8km/h 76% 0.00in /  0mm 0 W/m2
22:34 59.1 °F /  15.1 °C 51.7 °F /  10.9 °C 29.99in /  1015.5hPa NE 0.5mph /  0.8km/h 3.5mph /  5.6km/h 76.6% 0.00in /  0mm 0 W/m2
22:39 59 °F /  15 °C 51.8 °F /  11 °C 29.99in /  1015.5hPa NE 1.1mph /  1.8km/h 4mph /  6.4km/h 77% 0.00in /  0mm 0 W/m2
22:44 58.9 °F /  14.9 °C 52 °F /  11.1 °C 29.99in /  1015.5hPa ENE 0.9mph /  1.4km/h 5mph /  8km/h 77.7% 0.00in /  0mm 0 W/m2
22:49 58.7 °F /  14.8 °C 51.9 °F /  11.1 °C 29.99in /  1015.5hPa ENE 0.3mph /  0.5km/h 5mph /  8km/h 78% 0.00in /  0mm 0 W/m2
22:54 58.6 °F /  14.8 °C 51.8 °F /  11 °C 29.99in /  1015.5hPa Calm   2mph /  3.2km/h 78% 0.00in /  0mm 0 W/m2
22:59 58.5 °F /  14.7 °C 51.7 °F /  10.9 °C 30.00in /  1015.8hPa ENE 0.2mph /  0.3km/h 2.3mph /  3.7km/h 78% 0.00in /  0mm 0 W/m2
23:04 58.3 °F /  14.6 °C 51.5 °F /  10.8 °C 30.00in /  1015.8hPa ENE 0.1mph /  0.2km/h 2.3mph /  3.7km/h 78% 0.00in /  0mm 0 W/m2
23:09 58.2 °F /  14.6 °C 51.4 °F /  10.8 °C 30.00in /  1015.8hPa Calm   2mph /  3.2km/h 78% 0.00in /  0mm 0 W/m2
23:14 58.1 °F /  14.5 °C 51.6 °F /  10.9 °C 30.00in /  1015.8hPa Calm     79% 0.00in /  0mm 0 W/m2
23:19 58 °F /  14.4 °C 51.5 °F /  10.8 °C 30.00in /  1015.8hPa Calm     79% 0.00in /  0mm 0 W/m2
23:24 57.9 °F /  14.4 °C 51.4 °F /  10.8 °C 30.00in /  1015.8hPa Calm     79% 0.00in /  0mm 0 W/m2
23:29 57.7 °F /  14.3 °C 51.2 °F /  10.7 °C 30.00in /  1015.8hPa Calm     79% 0.00in /  0mm 0 W/m2
23:34 57.5 °F /  14.2 °C 51.1 °F /  10.6 °C 30.00in /  1015.8hPa Calm     79.2% 0.00in /  0mm 0 W/m2
23:39 57.4 °F /  14.1 °C 51.3 °F /  10.7 °C 30.00in /  1015.8hPa Calm     80% 0.00in /  0mm 0 W/m2
23:44 57.3 °F /  14.1 °C 51.2 °F /  10.7 °C 30.00in /  1015.8hPa Calm     80% 0.00in /  0mm 0 W/m2
23:49 57.1 °F /  13.9 °C 51 °F /  10.6 °C 30.00in /  1015.8hPa Calm     80% 0.00in /  0mm 0 W/m2
23:54 57 °F /  13.9 °C 51.2 °F /  10.7 °C 30.00in /  1015.8hPa Calm     81% 0.00in /  0mm 0 W/m2
23:59 56.9 °F /  13.8 °C 51.1 °F /  10.6 °C 30.00in /  1015.8hPa Calm     81% 0.00in /  0mm 0 W/m2
Saratoga, California, USA
Compliments of Weather Underground - 2 mb

WU-history PHP script courtesy of Juneau County Weather and modified for WU/TWC API use by Saratoga-weather.org

This script set is available on GitHub.

deformed-offering